sensor_id;sensor_type;location;lat;lon;timestamp;temperature;humidity
43862;DHT22;29510;52.140;5.034;2023-06-04T00:09:51;14.20;1.00
43862;DHT22;29510;52.140;5.034;2023-06-04T00:19:53;14.00;1.00
43862;DHT22;29510;52.140;5.034;2023-06-04T00:29:54;13.90;1.00
43862;DHT22;29510;52.140;5.034;2023-06-04T00:40:15;13.70;1.00
43862;DHT22;29510;52.140;5.034;2023-06-04T00:50:17;13.70;1.00
43862;DHT22;29510;52.140;5.034;2023-06-04T01:00:22;13.50;1.00
43862;DHT22;29510;52.140;5.034;2023-06-04T01:10:24;13.40;1.00
43862;DHT22;29510;52.140;5.034;2023-06-04T01:20:34;13.30;1.00
43862;DHT22;29510;52.140;5.034;2023-06-04T01:30:57;13.20;1.00
43862;DHT22;29510;52.140;5.034;2023-06-04T01:41:01;13.20;1.00
43862;DHT22;29510;52.140;5.034;2023-06-04T01:51:03;13.20;1.00
43862;DHT22;29510;52.140;5.034;2023-06-04T02:01:04;13.20;1.00
43862;DHT22;29510;52.140;5.034;2023-06-04T02:11:06;13.10;1.00
43862;DHT22;29510;52.140;5.034;2023-06-04T02:21:07;13.00;1.00
43862;DHT22;29510;52.140;5.034;2023-06-04T02:41:19;12.80;1.00
43862;DHT22;29510;52.140;5.034;2023-06-04T02:51:22;12.80;1.00
43862;DHT22;29510;52.140;5.034;2023-06-04T03:01:25;12.70;1.00
43862;DHT22;29510;52.140;5.034;2023-06-04T03:11:27;12.60;1.00
43862;DHT22;29510;52.140;5.034;2023-06-04T03:21:30;12.50;1.00
43862;DHT22;29510;52.140;5.034;2023-06-04T03:31:31;12.50;1.00
43862;DHT22;29510;52.140;5.034;2023-06-04T03:41:33;12.40;1.00
43862;DHT22;29510;52.140;5.034;2023-06-04T03:51:37;12.30;1.00
43862;DHT22;29510;52.140;5.034;2023-06-04T04:01:39;12.30;1.00
43862;DHT22;29510;52.140;5.034;2023-06-04T04:11:42;12.20;1.00
43862;DHT22;29510;52.140;5.034;2023-06-04T04:22:03;12.30;1.00
43862;DHT22;29510;52.140;5.034;2023-06-04T04:32:24;12.30;1.00
43862;DHT22;29510;52.140;5.034;2023-06-04T04:42:46;12.30;1.00
43862;DHT22;29510;52.140;5.034;2023-06-04T04:53:07;12.40;1.00
43862;DHT22;29510;52.140;5.034;2023-06-04T05:03:28;12.60;1.00
43862;DHT22;29510;52.140;5.034;2023-06-04T05:13:49;12.80;1.00
43862;DHT22;29510;52.140;5.034;2023-06-04T05:24:10;13.20;1.00
43862;DHT22;29510;52.140;5.034;2023-06-04T05:34:31;13.40;1.00
43862;DHT22;29510;52.140;5.034;2023-06-04T05:44:38;13.70;1.00
43862;DHT22;29510;52.140;5.034;2023-06-04T05:54:39;14.00;1.00
43862;DHT22;29510;52.140;5.034;2023-06-04T06:04:41;14.30;1.00
43862;DHT22;29510;52.140;5.034;2023-06-04T06:14:42;14.50;1.00
43862;DHT22;29510;52.140;5.034;2023-06-04T06:24:44;14.90;1.00
43862;DHT22;29510;52.140;5.034;2023-06-04T06:34:45;15.10;1.00
43862;DHT22;29510;52.140;5.034;2023-06-04T06:44:47;15.50;1.00
43862;DHT22;29510;52.140;5.034;2023-06-04T06:54:48;15.70;1.00
43862;DHT22;29510;52.140;5.034;2023-06-04T07:04:49;16.00;1.00
43862;DHT22;29510;52.140;5.034;2023-06-04T07:14:50;16.30;1.00
43862;DHT22;29510;52.140;5.034;2023-06-04T07:24:51;16.60;1.00
43862;DHT22;29510;52.140;5.034;2023-06-04T07:35:02;16.80;1.00
43862;DHT22;29510;52.140;5.034;2023-06-04T07:45:04;16.90;1.00
43862;DHT22;29510;52.140;5.034;2023-06-04T07:55:07;17.10;1.00
43862;DHT22;29510;52.140;5.034;2023-06-04T08:05:09;17.20;1.00
43862;DHT22;29510;52.140;5.034;2023-06-04T08:15:11;17.20;1.00
43862;DHT22;29510;52.140;5.034;2023-06-04T08:25:13;17.50;1.00
43862;DHT22;29510;52.140;5.034;2023-06-04T08:35:15;17.60;1.00
43862;DHT22;29510;52.140;5.034;2023-06-04T08:45:20;17.80;1.00
43862;DHT22;29510;52.140;5.034;2023-06-04T08:55:40;18.20;1.00
43862;DHT22;29510;52.140;5.034;2023-06-04T09:06:02;18.60;1.00
43862;DHT22;29510;52.140;5.034;2023-06-04T09:16:05;18.90;1.00
43862;DHT22;29510;52.140;5.034;2023-06-04T09:26:08;19.20;1.00
43862;DHT22;29510;52.140;5.034;2023-06-04T09:36:16;19.20;1.00
43862;DHT22;29510;52.140;5.034;2023-06-04T09:46:17;19.40;1.00
43862;DHT22;29510;52.140;5.034;2023-06-04T09:56:18;19.60;1.00
43862;DHT22;29510;52.140;5.034;2023-06-04T10:06:20;19.80;1.00
43862;DHT22;29510;52.140;5.034;2023-06-04T10:16:42;20.10;1.00
43862;DHT22;29510;52.140;5.034;2023-06-04T10:26:43;20.30;1.00
43862;DHT22;29510;52.140;5.034;2023-06-04T10:36:45;20.50;1.00
43862;DHT22;29510;52.140;5.034;2023-06-04T10:46:46;20.50;1.00
43862;DHT22;29510;52.140;5.034;2023-06-04T10:57:15;20.50;1.00
43862;DHT22;29510;52.140;5.034;2023-06-04T11:07:43;20.60;1.00
43862;DHT22;29510;52.140;5.034;2023-06-04T11:17:52;20.80;1.00
43862;DHT22;29510;52.140;5.034;2023-06-04T11:27:54;20.80;1.00
43862;DHT22;29510;52.140;5.034;2023-06-04T11:37:57;20.80;1.00
43862;DHT22;29510;52.140;5.034;2023-06-04T11:47:59;21.00;1.00
43862;DHT22;29510;52.140;5.034;2023-06-04T11:58:00;21.00;1.00
43862;DHT22;29510;52.140;5.034;2023-06-04T12:08:10;21.00;1.00
43862;DHT22;29510;52.140;5.034;2023-06-04T12:18:11;21.30;1.00
43862;DHT22;29510;52.140;5.034;2023-06-04T12:28:19;21.20;1.00
43862;DHT22;29510;52.140;5.034;2023-06-04T12:38:24;21.50;1.00
43862;DHT22;29510;52.140;5.034;2023-06-04T12:48:32;21.40;1.00
43862;DHT22;29510;52.140;5.034;2023-06-04T12:58:54;21.80;1.00
43862;DHT22;29510;52.140;5.034;2023-06-04T13:08:55;21.50;1.00
43862;DHT22;29510;52.140;5.034;2023-06-04T13:18:56;21.50;1.00
43862;DHT22;29510;52.140;5.034;2023-06-04T13:29:17;21.60;1.00
43862;DHT22;29510;52.140;5.034;2023-06-04T13:39:42;21.60;1.00
43862;DHT22;29510;52.140;5.034;2023-06-04T13:50:04;21.50;1.00
43862;DHT22;29510;52.140;5.034;2023-06-04T14:00:05;21.90;1.00
43862;DHT22;29510;52.140;5.034;2023-06-04T14:10:10;21.50;1.00
43862;DHT22;29510;52.140;5.034;2023-06-04T14:20:31;21.30;1.00
43862;DHT22;29510;52.140;5.034;2023-06-04T14:30:52;21.10;1.00
43862;DHT22;29510;52.140;5.034;2023-06-04T14:40:59;21.10;1.00
43862;DHT22;29510;52.140;5.034;2023-06-04T14:51:00;21.00;1.00
43862;DHT22;29510;52.140;5.034;2023-06-04T15:01:03;21.10;1.00
43862;DHT22;29510;52.140;5.034;2023-06-04T15:11:24;20.80;1.00
43862;DHT22;29510;52.140;5.034;2023-06-04T15:21:46;20.80;1.00
43862;DHT22;29510;52.140;5.034;2023-06-04T15:31:51;20.80;1.00
43862;DHT22;29510;52.140;5.034;2023-06-04T15:41:55;20.80;1.00
43862;DHT22;29510;52.140;5.034;2023-06-04T15:52:17;20.80;1.00
43862;DHT22;29510;52.140;5.034;2023-06-04T16:02:23;20.50;1.00
43862;DHT22;29510;52.140;5.034;2023-06-04T16:12:44;20.40;1.00
43862;DHT22;29510;52.140;5.034;2023-06-04T16:23:05;20.30;1.00
43862;DHT22;29510;52.140;5.034;2023-06-04T16:33:09;20.10;1.00
43862;DHT22;29510;52.140;5.034;2023-06-04T16:43:30;19.90;1.00
43862;DHT22;29510;52.140;5.034;2023-06-04T16:53:51;19.70;1.00
43862;DHT22;29510;52.140;5.034;2023-06-04T17:04:12;19.40;1.00
43862;DHT22;29510;52.140;5.034;2023-06-04T17:14:34;19.20;1.00
43862;DHT22;29510;52.140;5.034;2023-06-04T17:24:55;19.00;1.00
43862;DHT22;29510;52.140;5.034;2023-06-04T17:35:08;18.70;1.00
43862;DHT22;29510;52.140;5.034;2023-06-04T17:45:30;18.50;1.00
43862;DHT22;29510;52.140;5.034;2023-06-04T17:55:51;18.60;1.00
43862;DHT22;29510;52.140;5.034;2023-06-04T18:06:10;18.40;1.00
43862;DHT22;29510;52.140;5.034;2023-06-04T18:16:31;18.10;1.00
43862;DHT22;29510;52.140;5.034;2023-06-04T18:26:35;18.00;1.00
43862;DHT22;29510;52.140;5.034;2023-06-04T18:36:56;17.80;1.00
43862;DHT22;29510;52.140;5.034;2023-06-04T18:47:07;17.60;1.00
43862;DHT22;29510;52.140;5.034;2023-06-04T18:57:28;17.40;1.00
43862;DHT22;29510;52.140;5.034;2023-06-04T19:07:49;17.30;1.00
43862;DHT22;29510;52.140;5.034;2023-06-04T19:18:10;17.10;1.00
43862;DHT22;29510;52.140;5.034;2023-06-04T19:28:32;16.90;1.00
43862;DHT22;29510;52.140;5.034;2023-06-04T19:38:53;16.70;1.00
43862;DHT22;29510;52.140;5.034;2023-06-04T19:49:15;16.50;1.00
43862;DHT22;29510;52.140;5.034;2023-06-04T19:59:38;16.40;1.00
43862;DHT22;29510;52.140;5.034;2023-06-04T20:10:03;16.20;1.00
43862;DHT22;29510;52.140;5.034;2023-06-04T20:20:24;15.90;1.00
43862;DHT22;29510;52.140;5.034;2023-06-04T20:30:46;15.90;1.00
43862;DHT22;29510;52.140;5.034;2023-06-04T20:41:07;15.70;1.00
43862;DHT22;29510;52.140;5.034;2023-06-04T20:51:29;15.50;1.00
43862;DHT22;29510;52.140;5.034;2023-06-04T21:01:50;15.30;1.00
43862;DHT22;29510;52.140;5.034;2023-06-04T21:12:11;15.30;1.00
43862;DHT22;29510;52.140;5.034;2023-06-04T21:22:32;15.20;1.00
43862;DHT22;29510;52.140;5.034;2023-06-04T21:32:53;15.10;1.00
43862;DHT22;29510;52.140;5.034;2023-06-04T21:43:14;14.90;1.00
43862;DHT22;29510;52.140;5.034;2023-06-04T21:53:37;14.70;1.00
43862;DHT22;29510;52.140;5.034;2023-06-04T22:03:58;14.70;1.00
43862;DHT22;29510;52.140;5.034;2023-06-04T22:14:19;14.60;1.00
43862;DHT22;29510;52.140;5.034;2023-06-04T22:24:41;14.40;1.00
43862;DHT22;29510;52.140;5.034;2023-06-04T22:35:04;14.20;1.00
43862;DHT22;29510;52.140;5.034;2023-06-04T22:45:26;14.10;1.00
43862;DHT22;29510;52.140;5.034;2023-06-04T22:55:48;13.90;1.00
43862;DHT22;29510;52.140;5.034;2023-06-04T23:06:09;13.80;1.00
43862;DHT22;29510;52.140;5.034;2023-06-04T23:16:31;13.60;1.00
43862;DHT22;29510;52.140;5.034;2023-06-04T23:26:52;13.50;1.00
43862;DHT22;29510;52.140;5.034;2023-06-04T23:37:13;13.30;1.00
43862;DHT22;29510;52.140;5.034;2023-06-04T23:47:35;13.20;1.00
43862;DHT22;29510;52.140;5.034;2023-06-04T23:57:57;13.10;1.00
